Time;durP1;ratioP1;P1;durP2;ratioP2;P2;SDS_P1;SDS_P2;PMS_P1;PMS_P2;Temp;Humidity;BMP_temperature;BMP_pressure;BME280_temperature;BME280_humidity;BME280_pressure;Samples;Min_cycle;Max_cycle;Signal;HPM_P1;HPM_P2
2020/12/04 00:01:22;;;;;;;15.33;11.57;;;1.70;39.00;;;;;;10359872;28;20699;-71
2020/12/04 00:06:24;;;;;;;14.70;11.23;;;1.80;39.10;;;;;;10348987;28;20320;-72
2020/12/04 00:11:27;;;;;;;16.07;12.60;;;1.70;38.90;;;;;;10353526;28;20914;-72
2020/12/04 00:16:30;;;;;;;14.90;11.50;;;1.70;38.90;;;;;;10350397;28;20234;-71
2020/12/04 00:21:32;;;;;;;15.23;12.23;;;1.70;38.80;;;;;;10359310;28;20241;-72
2020/12/04 00:26:37;;;;;;;15.97;11.80;;;1.60;38.80;;;;;;10353178;28;20223;-72
2020/12/04 00:31:40;;;;;;;17.87;13.13;;;1.50;38.90;;;;;;10350992;28;20234;-71
2020/12/04 00:36:45;;;;;;;18.10;11.73;;;1.40;39.30;;;;;;10355205;28;20226;-72
2020/12/04 00:41:47;;;;;;;17.87;13.13;;;1.40;39.10;;;;;;10350349;28;20243;-72
2020/12/04 00:46:50;;;;;;;17.07;13.07;;;1.30;39.00;;;;;;10351523;28;20215;-72
2020/12/04 00:51:53;;;;;;;18.67;13.57;;;1.20;39.00;;;;;;10353974;28;20725;-72
2020/12/04 00:56:55;;;;;;;17.13;12.03;;;1.20;39.30;;;;;;10347731;28;20257;-72
2020/12/04 01:01:58;;;;;;;15.37;11.13;;;1.20;39.60;;;;;;10351189;28;20582;-71
2020/12/04 01:07:04;;;;;;;15.20;11.30;;;1.10;39.50;;;;;;10350842;28;20233;-71
2020/12/04 01:12:06;;;;;;;19.17;13.37;;;1.10;39.50;;;;;;10347921;28;20277;-71
2020/12/04 01:17:09;;;;;;;18.30;11.93;;;1.10;39.50;;;;;;10345094;28;20541;-71
2020/12/04 01:22:13;;;;;;;17.63;12.73;;;1.20;39.60;;;;;;10351591;28;20231;-72
2020/12/04 01:27:16;;;;;;;18.57;12.77;;;1.10;39.60;;;;;;10350354;28;20601;-71
2020/12/04 01:32:20;;;;;;;18.87;12.93;;;1.10;39.70;;;;;;10349413;28;20605;-71
2020/12/04 01:37:22;;;;;;;17.60;12.63;;;1.10;40.00;;;;;;10343749;28;20231;-72
2020/12/04 01:42:24;;;;;;;19.60;13.63;;;1.20;40.10;;;;;;10349473;28;20233;-72
2020/12/04 01:47:27;;;;;;;17.13;12.97;;;1.20;40.00;;;;;;10347941;28;20230;-71
2020/12/04 01:52:30;;;;;;;19.43;13.03;;;1.30;40.20;;;;;;10354233;28;20470;-72
2020/12/04 01:57:35;;;;;;;19.83;14.23;;;1.30;40.00;;;;;;10357480;28;20233;-72
2020/12/04 02:02:38;;;;;;;17.33;13.07;;;1.30;40.20;;;;;;10354042;28;20754;-72
2020/12/04 02:07:47;;;;;;;18.30;13.23;;;1.40;40.20;;;;;;10359051;28;20631;-72
2020/12/04 02:12:50;;;;;;;15.33;10.67;;;1.40;40.30;;;;;;10355530;28;20313;-72
2020/12/04 02:17:55;;;;;;;16.20;11.80;;;1.40;40.40;;;;;;10358722;28;20309;-72
2020/12/04 02:22:58;;;;;;;19.33;12.93;;;1.50;40.50;;;;;;10355956;28;20226;-72
2020/12/04 02:28:01;;;;;;;18.97;13.37;;;1.50;40.40;;;;;;10355528;28;20232;-71
2020/12/04 02:33:03;;;;;;;20.20;14.40;;;1.60;40.50;;;;;;10362367;28;20256;-72
2020/12/04 02:38:06;;;;;;;21.00;14.33;;;1.60;40.40;;;;;;10352514;28;20817;-72
2020/12/04 02:43:08;;;;;;;18.03;13.50;;;1.60;40.40;;;;;;10351684;28;20246;-72
2020/12/04 02:48:11;;;;;;;17.50;12.80;;;1.60;40.40;;;;;;10358497;28;20226;-72
2020/12/04 02:53:14;;;;;;;15.63;12.43;;;1.60;40.40;;;;;;10353178;28;20230;-72
2020/12/04 02:58:16;;;;;;;20.50;14.13;;;1.70;40.40;;;;;;10353432;28;20577;-72
2020/12/04 03:03:18;;;;;;;19.63;14.43;;;1.70;40.40;;;;;;10353783;28;20226;-72
2020/12/04 03:08:25;;;;;;;18.53;13.73;;;1.70;40.40;;;;;;10395890;22;20225;-72
2020/12/04 03:13:27;;;;;;;18.07;14.03;;;1.70;40.30;;;;;;10395264;28;20272;-72
2020/12/04 03:18:29;;;;;;;18.73;13.30;;;1.70;40.40;;;;;;10390970;28;20226;-72
2020/12/04 03:23:33;;;;;;;20.50;14.70;;;1.70;41.00;;;;;;10390719;28;20249;-71
2020/12/04 03:28:36;;;;;;;17.57;14.17;;;1.70;40.30;;;;;;10391502;28;20236;-72
2020/12/04 03:33:38;;;;;;;18.37;13.90;;;1.70;40.20;;;;;;10392818;28;20230;-72
2020/12/04 03:38:41;;;;;;;20.17;14.33;;;1.70;40.30;;;;;;10395160;28;20234;-72
2020/12/04 03:43:43;;;;;;;18.97;13.77;;;1.70;40.20;;;;;;10405421;28;21916;-72
2020/12/04 03:48:45;;;;;;;18.53;13.43;;;1.70;40.30;;;;;;10393272;28;20230;-72
2020/12/04 03:53:48;;;;;;;17.70;13.60;;;1.80;40.30;;;;;;10398724;28;20439;-72
2020/12/04 03:58:50;;;;;;;16.00;12.37;;;1.80;40.50;;;;;;10384894;28;20229;-71
2020/12/04 04:03:52;;;;;;;16.10;12.83;;;1.80;40.40;;;;;;10400300;23;20259;-81
2020/12/04 04:08:56;;;;;;;16.27;12.17;;;1.80;40.40;;;;;;10392985;28;20237;-80
2020/12/04 04:14:01;;;;;;;17.83;13.70;;;1.80;40.50;;;;;;10402507;28;20229;-83
2020/12/04 04:19:03;;;;;;;18.37;13.93;;;1.80;40.60;;;;;;10396119;28;20681;-83
2020/12/04 04:24:06;;;;;;;16.20;12.03;;;2.00;40.70;;;;;;10389064;28;20236;-83
2020/12/04 04:29:09;;;;;;;21.40;15.43;;;1.90;40.60;;;;;;10391046;28;20266;-84
2020/12/04 04:34:11;;;;;;;18.90;14.03;;;1.90;40.60;;;;;;10395814;28;20235;-84
2020/12/04 04:39:16;;;;;;;19.83;14.83;;;1.90;40.60;;;;;;10403418;28;20249;-84
2020/12/04 04:44:18;;;;;;;17.90;13.80;;;1.90;40.60;;;;;;10401012;28;20240;-83
2020/12/04 04:49:27;;;;;;;17.70;13.90;;;2.00;40.70;;;;;;10401520;28;24562;-84
2020/12/04 04:54:34;;;;;;;17.77;12.67;;;2.10;40.90;;;;;;10407132;28;20932;-83
2020/12/04 04:59:36;;;;;;;16.57;12.10;;;2.00;40.60;;;;;;10397969;28;20246;-84
2020/12/04 05:04:49;;;;;;;18.00;13.43;;;2.00;40.70;;;;;;10394369;28;20304;-83
2020/12/04 05:09:53;;;;;;;16.20;12.80;;;2.00;40.60;;;;;;10391937;28;20309;-84
2020/12/04 05:14:55;;;;;;;15.70;13.07;;;2.20;40.90;;;;;;10402173;28;20604;-83
2020/12/04 05:19:58;;;;;;;16.77;13.67;;;2.10;40.90;;;;;;10395714;28;20277;-83
2020/12/04 05:25:14;;;;;;;17.20;13.30;;;2.10;40.90;;;;;;10394397;28;20329;-83
2020/12/04 05:30:26;;;;;;;16.47;12.60;;;2.10;41.00;;;;;;10388437;28;20221;-83
2020/12/04 05:35:28;;;;;;;19.57;14.00;;;2.30;41.10;;;;;;10405843;28;20646;-83
2020/12/04 05:40:32;;;;;;;17.97;14.50;;;2.30;41.10;;;;;;10410081;28;20221;-83
2020/12/04 05:45:34;;;;;;;16.87;13.23;;;2.20;40.90;;;;;;10408311;28;20225;-83
2020/12/04 05:50:37;;;;;;;18.07;13.80;;;2.30;41.10;;;;;;10396527;28;20222;-83
2020/12/04 05:55:43;;;;;;;18.20;12.97;;;2.40;41.10;;;;;;10404363;28;20221;-83
2020/12/04 06:00:50;;;;;;;19.57;14.07;;;2.30;41.10;;;;;;10400170;28;20244;-84
2020/12/04 06:05:56;;;;;;;19.70;15.17;;;2.40;41.10;;;;;;10407572;28;20719;-83
2020/12/04 06:10:59;;;;;;;18.13;13.17;;;2.30;41.10;;;;;;10408985;28;20230;-84
2020/12/04 06:16:12;;;;;;;17.83;13.43;;;2.30;41.00;;;;;;10401519;28;20313;-83
2020/12/04 06:21:14;;;;;;;19.57;13.87;;;2.30;41.10;;;;;;10397116;28;20225;-83
2020/12/04 06:26:17;;;;;;;15.40;11.50;;;2.40;41.10;;;;;;10408328;28;20269;-84
2020/12/04 06:31:20;;;;;;;15.97;12.23;;;2.40;41.10;;;;;;10408341;28;20230;-83
2020/12/04 06:36:36;;;;;;;17.17;14.03;;;2.40;41.00;;;;;;10406219;28;20314;-84
2020/12/04 06:41:45;;;;;;;19.67;14.03;;;2.40;41.10;;;;;;10395265;28;20300;-83
2020/12/04 06:46:53;;;;;;;14.90;11.77;;;2.40;41.00;;;;;;10395679;28;20748;-83
2020/12/04 06:52:08;;;;;;;20.43;14.33;;;2.40;41.00;;;;;;10410225;28;20304;-83
2020/12/04 06:57:17;;;;;;;19.53;14.30;;;2.40;40.90;;;;;;10408393;28;20235;-84
2020/12/04 07:02:20;;;;;;;19.30;14.67;;;2.40;40.80;;;;;;10397439;28;20317;-83
2020/12/04 07:07:28;;;;;;;19.07;13.73;;;2.40;40.60;;;;;;10406754;28;20233;-83
2020/12/04 07:12:33;;;;;;;16.80;13.27;;;2.50;40.70;;;;;;10405689;28;20701;-83
2020/12/04 07:17:35;;;;;;;18.43;14.33;;;2.40;40.60;;;;;;10400474;28;20235;-83
2020/12/04 07:22:38;;;;;;;19.27;14.67;;;2.30;40.60;;;;;;10399229;28;20226;-81
2020/12/04 07:27:47;;;;;;;19.53;14.47;;;2.30;40.90;;;;;;10396240;28;20233;-81
2020/12/04 07:32:51;;;;;;;19.87;14.90;;;2.30;40.90;;;;;;10382440;28;20230;-81
2020/12/04 07:37:53;;;;;;;21.53;14.57;;;2.40;41.10;;;;;;10395255;28;20230;-81
2020/12/04 07:43:03;;;;;;;20.37;14.90;;;2.30;41.00;;;;;;10401124;28;20671;-82
2020/12/04 07:48:09;;;;;;;18.93;14.40;;;2.40;41.30;;;;;;10415471;28;20636;-82
2020/12/04 07:53:12;;;;;;;18.43;14.07;;;2.50;41.30;;;;;;10412941;28;20232;-82
2020/12/04 07:58:22;;;;;;;19.33;14.53;;;2.40;41.20;;;;;;10374632;28;20442;-82
2020/12/04 08:03:24;;;;;;;18.37;13.97;;;2.50;41.40;;;;;;10391914;28;20316;-82
2020/12/04 08:08:29;;;;;;;22.83;16.87;;;2.60;41.30;;;;;;10390531;28;20287;-82
2020/12/04 08:13:48;;;;;;;21.03;16.03;;;2.60;41.30;;;;;;10397728;28;20293;-82
2020/12/04 08:18:51;;;;;;;21.73;16.20;;;2.60;41.60;;;;;;10409111;28;20289;-82
2020/12/04 08:23:56;;;;;;;21.73;16.30;;;2.70;41.40;;;;;;10407518;28;20226;-83
2020/12/04 08:28:59;;;;;;;21.63;16.77;;;2.70;41.60;;;;;;10407271;28;20225;-82
2020/12/04 08:34:02;;;;;;;20.13;14.53;;;2.80;42.40;;;;;;10399610;28;20261;-82
2020/12/04 08:39:04;;;;;;;18.93;15.50;;;2.70;41.60;;;;;;10399062;28;20222;-83
2020/12/04 08:44:09;;;;;;;20.67;16.30;;;2.70;41.60;;;;;;10385670;28;20742;-83
2020/12/04 08:49:12;;;;;;;23.17;16.60;;;2.80;41.70;;;;;;10395566;28;20320;-83
2020/12/04 08:54:14;;;;;;;21.33;15.53;;;3.00;41.70;;;;;;10394260;28;20253;-82
2020/12/04 08:59:25;;;;;;;21.60;16.40;;;2.90;41.70;;;;;;10392023;28;20222;-82
2020/12/04 09:04:28;;;;;;;21.37;16.33;;;2.90;41.90;;;;;;10402184;28;20809;-83
2020/12/04 09:09:30;;;;;;;21.33;16.27;;;2.90;41.80;;;;;;10398621;28;20232;-83
2020/12/04 09:14:36;;;;;;;19.00;14.87;;;3.00;42.00;;;;;;10403074;28;20243;-82
2020/12/04 09:19:39;;;;;;;21.50;15.10;;;3.00;42.20;;;;;;10400434;28;20252;-83
2020/12/04 09:24:45;;;;;;;19.57;15.40;;;3.10;42.00;;;;;;10403712;28;20229;-83
2020/12/04 09:29:48;;;;;;;17.53;13.57;;;3.10;42.20;;;;;;10397873;28;20305;-83
2020/12/04 09:34:51;;;;;;;19.63;15.53;;;3.20;42.20;;;;;;10387851;28;20713;-83
2020/12/04 09:39:54;;;;;;;17.20;13.83;;;3.30;42.20;;;;;;10388046;28;20221;-83
2020/12/04 09:44:58;;;;;;;19.30;14.23;;;3.30;42.20;;;;;;10394569;28;20623;-83
2020/12/04 09:50:00;;;;;;;18.80;14.63;;;3.40;42.20;;;;;;10389030;28;20222;-82
2020/12/04 09:55:03;;;;;;;18.67;15.13;;;3.50;42.20;;;;;;10385028;28;20302;-84
2020/12/04 10:00:07;;;;;;;19.10;14.73;;;3.50;42.10;;;;;;10402094;28;20744;-83
2020/12/04 10:05:12;;;;;;;17.80;14.47;;;3.60;42.20;;;;;;10395683;28;20299;-83
2020/12/04 10:10:15;;;;;;;19.60;13.97;;;3.70;42.20;;;;;;10403464;28;20238;-83
2020/12/04 10:15:18;;;;;;;18.17;15.53;;;3.70;42.20;;;;;;10402014;28;20300;-83
2020/12/04 10:20:20;;;;;;;19.70;15.30;;;3.90;42.50;;;;;;10405742;28;20229;-83
2020/12/04 10:25:23;;;;;;;19.30;15.00;;;3.90;42.30;;;;;;10403594;28;20225;-84
2020/12/04 10:30:29;;;;;;;19.67;16.17;;;4.00;42.20;;;;;;10398447;28;20228;-83
2020/12/04 10:35:34;;;;;;;18.67;14.60;;;4.00;42.20;;;;;;10393391;28;20230;-83
2020/12/04 10:40:36;;;;;;;18.53;15.03;;;4.10;42.00;;;;;;10409111;28;20783;-83
2020/12/04 10:45:39;;;;;;;17.60;13.93;;;4.20;42.10;;;;;;10412995;28;20308;-83
2020/12/04 10:50:43;;;;;;;17.73;15.03;;;4.20;42.10;;;;;;10390111;28;20301;-82
2020/12/04 10:55:45;;;;;;;18.87;14.93;;;4.30;42.20;;;;;;10402066;28;20953;-83
2020/12/04 11:00:50;;;;;;;17.60;14.07;;;4.30;42.20;;;;;;10407120;28;20228;-83
2020/12/04 11:05:52;;;;;;;15.83;13.23;;;4.40;42.20;;;;;;10408269;28;20275;-82
2020/12/04 11:10:57;;;;;;;16.70;14.73;;;4.50;42.30;;;;;;10401373;28;20648;-83
2020/12/04 11:16:11;;;;;;;18.20;14.67;;;4.50;42.20;;;;;;10395413;28;20238;-82
2020/12/04 11:21:14;;;;;;;17.60;14.50;;;4.50;42.20;;;;;;10397709;28;20780;-83
2020/12/04 11:26:17;;;;;;;18.80;14.97;;;4.60;42.50;;;;;;10393666;28;20241;-82
2020/12/04 11:31:20;;;;;;;17.50;13.93;;;4.70;42.90;;;;;;10394752;28;20237;-83
2020/12/04 11:36:23;;;;;;;18.30;14.50;;;4.70;42.30;;;;;;10401617;28;20256;-82
2020/12/04 11:41:29;;;;;;;18.17;14.73;;;4.80;42.20;;;;;;10392431;28;20227;-82
2020/12/04 11:46:33;;;;;;;16.67;14.13;;;4.80;42.20;;;;;;10398632;28;20742;-83
2020/12/04 11:51:35;;;;;;;17.80;14.83;;;4.80;42.20;;;;;;10393351;28;20304;-83
2020/12/04 11:56:37;;;;;;;15.53;13.90;;;4.80;42.10;;;;;;10388426;28;20879;-83
2020/12/04 12:01:40;;;;;;;18.23;15.40;;;4.80;42.20;;;;;;10386397;28;20228;-83
2020/12/04 12:06:47;;;;;;;17.50;14.77;;;4.80;42.10;;;;;;10390470;28;20339;-82
2020/12/04 12:11:49;;;;;;;16.17;13.73;;;4.90;42.30;;;;;;10398823;28;20225;-83
2020/12/04 12:17:06;;;;;;;19.27;15.90;;;4.90;42.20;;;;;;10394316;28;20287;-83
2020/12/04 12:22:10;;;;;;;18.63;15.07;;;4.90;42.20;;;;;;10397941;28;20309;-82
2020/12/04 12:27:13;;;;;;;16.20;13.90;;;5.00;42.30;;;;;;10391344;28;20257;-83
2020/12/04 12:32:21;;;;;;;17.90;14.23;;;5.00;42.20;;;;;;10376976;28;20628;-83
2020/12/04 12:37:24;;;;;;;17.00;14.50;;;5.00;42.30;;;;;;10400255;28;20308;-83
2020/12/04 12:42:26;;;;;;;20.10;14.43;;;5.10;42.30;;;;;;10396672;28;20324;-83
2020/12/04 12:47:29;;;;;;;18.07;14.30;;;5.10;42.30;;;;;;10388667;28;21405;-83
2020/12/04 12:52:32;;;;;;;16.77;13.87;;;5.20;42.30;;;;;;10387605;28;20950;-82
2020/12/04 12:57:34;;;;;;;14.83;13.33;;;5.30;42.50;;;;;;10386922;28;20227;-83
2020/12/04 13:02:40;;;;;;;15.43;13.20;;;5.30;42.30;;;;;;10384968;28;20224;-83
2020/12/04 13:07:42;;;;;;;17.07;14.47;;;5.40;42.40;;;;;;10380396;28;20725;-82
2020/12/04 13:12:45;;;;;;;15.70;14.00;;;5.40;42.40;;;;;;10385962;28;20309;-83
2020/12/04 13:17:50;;;;;;;16.90;14.60;;;5.40;42.40;;;;;;10391531;28;20222;-83
2020/12/04 13:28:12;;;;;;;14.53;13.03;;;5.50;42.30;;;;;;10380727;28;20222;-84
2020/12/04 13:33:16;;;;;;;15.13;12.90;;;5.60;42.30;;;;;;10383540;28;20308;-83
2020/12/04 13:38:18;;;;;;;15.20;12.37;;;5.60;42.30;;;;;;10403591;23;20229;-70
2020/12/04 13:43:20;;;;;;;14.77;13.17;;;5.70;42.20;;;;;;10383618;28;20230;-72
2020/12/04 13:48:23;;;;;;;13.73;12.23;;;5.70;42.20;;;;;;10384014;28;20233;-71
2020/12/04 13:53:25;;;;;;;14.37;12.03;;;5.70;42.10;;;;;;10378523;28;20261;-69
2020/12/04 13:58:27;;;;;;;14.17;12.10;;;5.80;42.30;;;;;;10390651;28;20233;-69
2020/12/04 14:03:31;;;;;;;14.07;11.53;;;5.80;42.10;;;;;;10379306;28;20734;-69
2020/12/04 14:08:33;;;;;;;13.40;11.00;;;5.80;42.00;;;;;;10386333;28;20221;-69
2020/12/04 14:13:36;;;;;;;13.27;11.90;;;5.90;42.10;;;;;;10382802;28;20241;-69
2020/12/04 14:18:39;;;;;;;13.27;11.87;;;5.90;42.00;;;;;;10381616;28;20226;-69
2020/12/04 14:23:41;;;;;;;12.83;11.33;;;5.90;42.00;;;;;;10372875;28;20256;-68
2020/12/04 14:28:44;;;;;;;14.93;12.43;;;5.90;41.90;;;;;;10388567;28;20874;-68
2020/12/04 14:33:47;;;;;;;13.90;12.40;;;5.90;41.90;;;;;;10376839;28;20729;-68
2020/12/04 14:39:04;;;;;;;14.13;12.63;;;5.90;41.80;;;;;;10387827;28;20646;-68
2020/12/04 14:44:07;;;;;;;13.70;12.17;;;5.90;41.80;;;;;;10378823;28;20232;-68
2020/12/04 14:49:10;;;;;;;14.37;12.40;;;5.90;41.80;;;;;;10383419;28;20222;-69
2020/12/04 14:54:13;;;;;;;15.77;13.43;;;5.90;41.60;;;;;;10369896;28;20234;-69
2020/12/04 14:59:15;;;;;;;15.47;13.77;;;5.90;41.50;;;;;;10376343;28;20244;-68
2020/12/04 15:04:18;;;;;;;15.07;11.90;;;5.80;41.50;;;;;;10383207;28;20230;-68
2020/12/04 15:09:21;;;;;;;11.00;9.83;;;5.80;41.50;;;;;;10389545;28;20903;-68
2020/12/04 15:14:23;;;;;;;11.53;9.80;;;5.80;41.70;;;;;;10384712;28;20225;-68
2020/12/04 15:19:26;;;;;;;12.13;9.70;;;5.80;41.70;;;;;;10369733;28;20222;-68
2020/12/04 15:24:29;;;;;;;11.63;9.53;;;5.80;41.70;;;;;;10383097;28;21342;-68
2020/12/04 15:29:31;;;;;;;12.97;11.23;;;5.80;41.70;;;;;;10372697;28;20281;-68
2020/12/04 15:34:34;;;;;;;12.00;10.70;;;5.80;41.70;;;;;;10368629;28;20234;-68
2020/12/04 15:39:37;;;;;;;11.23;10.03;;;5.80;41.50;;;;;;10382725;28;20361;-68
2020/12/04 15:44:39;;;;;;;11.50;10.30;;;5.80;41.50;;;;;;10370274;28;20234;-68
2020/12/04 15:49:43;;;;;;;16.63;14.03;;;5.70;41.50;;;;;;10374765;28;20232;-68
2020/12/04 15:54:45;;;;;;;13.33;11.27;;;5.70;41.50;;;;;;10375964;28;20230;-68
2020/12/04 15:59:47;;;;;;;11.17;10.07;;;5.70;41.50;;;;;;10366685;28;20225;-69
2020/12/04 16:04:50;;;;;;;10.90;9.30;;;5.70;41.70;;;;;;10387130;28;20240;-69
2020/12/04 16:09:52;;;;;;;11.23;10.00;;;5.70;41.60;;;;;;10372576;28;20247;-69
2020/12/04 16:14:55;;;;;;;12.43;10.30;;;5.80;41.70;;;;;;10383931;28;20224;-69
2020/12/04 16:19:58;;;;;;;14.50;11.63;;;5.80;41.70;;;;;;10375847;28;20226;-69
2020/12/04 16:25:00;;;;;;;15.53;13.73;;;5.80;41.40;;;;;;10381324;28;20222;-68
2020/12/04 16:30:03;;;;;;;12.43;11.13;;;5.70;41.20;;;;;;10367573;28;20298;-69
2020/12/04 16:35:06;;;;;;;12.67;10.90;;;5.70;41.50;;;;;;10370678;28;20236;-69
2020/12/04 16:40:09;;;;;;;11.17;9.97;;;5.70;41.60;;;;;;10365900;28;20481;-69
2020/12/04 16:45:11;;;;;;;11.13;9.30;;;5.70;41.70;;;;;;10363352;28;20226;-69
2020/12/04 16:50:15;;;;;;;10.50;9.40;;;5.70;41.80;;;;;;10364785;28;20230;-68
2020/12/04 16:55:17;;;;;;;13.60;10.87;;;5.80;41.90;;;;;;10365424;28;20226;-68
2020/12/04 17:00:20;;;;;;;11.77;10.50;;;5.80;41.90;;;;;;10366631;28;20740;-68
2020/12/04 17:05:25;;;;;;;11.27;10.17;;;5.90;41.90;;;;;;10368109;28;20251;-69
2020/12/04 17:10:28;;;;;;;10.93;9.83;;;5.90;41.80;;;;;;10375254;28;20222;-70
2020/12/04 17:15:30;;;;;;;12.77;9.17;;;5.90;42.40;;;;;;10370384;28;20234;-69
2020/12/04 17:20:33;;;;;;;10.83;9.20;;;6.00;42.30;;;;;;10370745;28;20232;-70
2020/12/04 17:25:36;;;;;;;10.27;9.27;;;6.00;42.10;;;;;;10377821;28;20576;-70
2020/12/04 17:30:38;;;;;;;12.23;11.00;;;6.10;42.00;;;;;;10372103;28;20230;-70
2020/12/04 17:35:41;;;;;;;12.40;11.10;;;6.10;41.80;;;;;;10373521;28;20233;-70
2020/12/04 17:40:43;;;;;;;10.67;9.50;;;6.10;41.80;;;;;;10373178;28;20226;-69
2020/12/04 17:45:45;;;;;;;10.03;9.03;;;6.20;42.00;;;;;;10364581;28;20233;-70
2020/12/04 17:50:49;;;;;;;13.73;12.33;;;6.20;42.00;;;;;;10378712;28;20230;-70
2020/12/04 17:55:51;;;;;;;10.53;9.53;;;6.30;42.00;;;;;;10371199;28;20339;-70
2020/12/04 18:00:53;;;;;;;10.73;9.23;;;6.30;41.90;;;;;;10374933;28;20233;-70
2020/12/04 18:05:57;;;;;;;9.80;8.90;;;6.40;42.00;;;;;;10374237;28;20699;-69
2020/12/04 18:10:59;;;;;;;10.83;9.73;;;6.40;41.90;;;;;;10387781;28;20222;-70
2020/12/04 18:16:01;;;;;;;10.80;9.70;;;6.50;41.70;;;;;;10388969;28;20256;-70
2020/12/04 18:21:04;;;;;;;10.80;9.70;;;6.50;41.50;;;;;;10378565;28;20217;-70
2020/12/04 18:26:06;;;;;;;11.50;10.30;;;6.50;41.60;;;;;;10383852;28;20226;-70
2020/12/04 18:31:11;;;;;;;12.67;11.07;;;6.40;41.60;;;;;;10383043;28;20234;-70
2020/12/04 18:36:14;;;;;;;12.40;9.67;;;6.40;41.60;;;;;;10381190;28;20234;-70
2020/12/04 18:41:18;;;;;;;11.17;9.27;;;6.40;41.50;;;;;;10375208;28;20320;-69
2020/12/04 18:46:21;;;;;;;8.93;8.03;;;6.40;42.20;;;;;;10382031;28;25243;-69
2020/12/04 18:51:24;;;;;;;9.63;8.63;;;6.40;41.80;;;;;;10379339;28;20231;-69
2020/12/04 18:56:26;;;;;;;11.20;9.10;;;6.40;41.60;;;;;;10374498;28;20948;-69
2020/12/04 19:01:29;;;;;;;10.20;9.20;;;6.30;41.30;;;;;;10390178;28;20236;-69
2020/12/04 19:06:32;;;;;;;11.00;9.87;;;6.30;41.60;;;;;;10380981;28;20242;-69
2020/12/04 19:11:35;;;;;;;12.17;10.23;;;6.20;41.60;;;;;;10384273;28;20675;-70
2020/12/04 19:16:37;;;;;;;12.30;10.37;;;6.20;41.60;;;;;;10378389;28;20225;-69
2020/12/04 19:21:41;;;;;;;12.73;9.50;;;6.20;41.60;;;;;;10380118;28;20232;-69
2020/12/04 19:26:46;;;;;;;10.33;8.93;;;6.20;41.60;;;;;;10383290;28;20217;-69
2020/12/04 19:31:48;;;;;;;9.40;7.70;;;6.20;41.60;;;;;;10375659;28;20674;-69
2020/12/04 19:36:52;;;;;;;10.27;9.23;;;6.20;41.40;;;;;;10377061;28;20229;-69
2020/12/04 19:41:54;;;;;;;10.50;9.40;;;6.10;41.40;;;;;;10373198;28;20226;-69
2020/12/04 19:46:56;;;;;;;9.53;8.47;;;6.10;41.50;;;;;;10374583;28;20230;-69
2020/12/04 19:51:59;;;;;;;11.43;9.13;;;6.10;41.40;;;;;;10364512;28;20222;-69
2020/12/04 19:57:02;;;;;;;10.20;9.13;;;6.00;41.50;;;;;;10379715;28;20226;-71
2020/12/04 20:02:05;;;;;;;13.40;12.03;;;6.00;41.50;;;;;;10378433;28;20226;-72
2020/12/04 20:07:08;;;;;;;12.37;10.00;;;6.00;41.30;;;;;;10392749;28;20316;-72
2020/12/04 20:12:10;;;;;;;10.27;8.27;;;6.00;41.50;;;;;;10383249;28;20722;-72
2020/12/04 20:17:13;;;;;;;8.60;7.70;;;6.00;41.70;;;;;;10391180;28;20237;-72
2020/12/04 20:22:16;;;;;;;8.17;7.37;;;6.00;41.70;;;;;;10388425;28;20334;-71
2020/12/04 20:27:18;;;;;;;9.37;7.20;;;6.10;41.80;;;;;;10400907;28;20225;-71
2020/12/04 20:32:20;;;;;;;9.97;8.90;;;6.20;41.80;;;;;;10379469;28;20253;-72
2020/12/04 20:37:23;;;;;;;9.30;8.37;;;6.30;41.70;;;;;;10394041;28;20998;-72
2020/12/04 20:42:26;;;;;;;9.03;8.13;;;6.40;41.60;;;;;;10388866;28;20229;-72
2020/12/04 20:47:29;;;;;;;10.60;7.47;;;6.40;41.40;;;;;;10377357;28;20286;-72
2020/12/04 20:52:32;;;;;;;10.13;7.23;;;6.50;41.40;;;;;;10399986;28;20643;-72
2020/12/04 20:57:35;;;;;;;8.30;6.27;;;6.50;41.40;;;;;;10389670;28;20233;-72
2020/12/04 21:02:37;;;;;;;6.90;5.93;;;6.60;41.60;;;;;;10370536;28;20236;-72
2020/12/04 21:07:41;;;;;;;10.00;7.37;;;6.70;41.60;;;;;;10375153;28;20230;-72
2020/12/04 21:12:43;;;;;;;8.17;5.70;;;6.70;41.40;;;;;;10378533;28;20240;-72
2020/12/04 21:17:45;;;;;;;8.23;6.47;;;6.90;41.40;;;;;;10379431;28;20232;-72
2020/12/04 21:22:49;;;;;;;10.13;6.90;;;7.00;41.30;;;;;;10381932;28;20232;-72
2020/12/04 21:27:51;;;;;;;5.93;5.00;;;7.00;40.90;;;;;;10380646;28;20296;-69
2020/12/04 21:32:55;;;;;;;6.27;5.53;;;7.10;41.00;;;;;;10380771;28;20221;-70
2020/12/04 21:38:02;;;;;;;8.30;7.47;;;7.10;40.70;;;;;;10380945;28;20222;-70
2020/12/04 21:43:04;;;;;;;7.13;6.43;;;7.20;40.80;;;;;;10382983;28;20229;-70
2020/12/04 21:48:07;;;;;;;6.10;4.90;;;7.20;40.80;;;;;;10385949;28;20722;-69
2020/12/04 21:53:10;;;;;;;6.13;4.67;;;7.20;40.70;;;;;;10383482;28;20233;-70
2020/12/04 21:58:12;;;;;;;5.80;5.20;;;7.30;40.50;;;;;;10384444;28;20234;-70
2020/12/04 22:03:14;;;;;;;5.80;4.90;;;7.20;40.40;;;;;;10387462;28;20748;-70
2020/12/04 22:08:17;;;;;;;5.10;4.60;;;7.20;40.50;;;;;;10393955;28;20257;-69
2020/12/04 22:13:19;;;;;;;5.87;5.13;;;7.20;40.30;;;;;;10395335;28;20230;-69
2020/12/04 22:18:21;;;;;;;6.30;5.70;;;7.20;40.30;;;;;;10390955;28;20394;-72
2020/12/04 22:23:25;;;;;;;7.37;6.27;;;7.10;40.20;;;;;;10398595;28;20252;-72
2020/12/04 22:28:27;;;;;;;6.53;5.73;;;7.10;40.10;;;;;;10382826;28;20232;-72
2020/12/04 22:33:29;;;;;;;6.20;5.60;;;7.00;40.20;;;;;;10379620;28;20610;-69
2020/12/04 22:38:32;;;;;;;7.63;6.37;;;7.00;40.30;;;;;;10387830;28;20310;-72
2020/12/04 22:43:35;;;;;;;5.87;5.30;;;6.90;40.20;;;;;;10376998;28;20265;-72
2020/12/04 22:48:38;;;;;;;6.37;5.67;;;6.90;40.30;;;;;;10375804;28;20229;-72
2020/12/04 22:53:41;;;;;;;5.07;4.57;;;6.90;40.40;;;;;;10384552;28;20226;-69
2020/12/04 22:58:43;;;;;;;5.40;4.90;;;6.80;40.20;;;;;;10380295;28;20230;-72
2020/12/04 23:03:46;;;;;;;5.30;4.60;;;6.80;40.10;;;;;;10378741;28;20291;-71
2020/12/04 23:08:50;;;;;;;5.43;4.83;;;6.70;40.00;;;;;;10380115;28;20222;-72
2020/12/04 23:13:52;;;;;;;5.17;4.60;;;6.70;40.20;;;;;;10390455;28;20313;-69
2020/12/04 23:18:56;;;;;;;5.00;4.50;;;6.70;40.40;;;;;;10374928;28;20230;-69
2020/12/04 23:23:59;;;;;;;5.20;4.70;;;6.70;40.40;;;;;;10379145;28;20226;-72
2020/12/04 23:29:01;;;;;;;5.33;4.83;;;6.70;40.30;;;;;;10390879;28;20226;-72
2020/12/04 23:34:03;;;;;;;5.63;4.50;;;6.70;40.30;;;;;;10385269;28;20229;-69
2020/12/04 23:39:06;;;;;;;5.77;5.23;;;6.70;40.30;;;;;;10380784;28;20229;-69
2020/12/04 23:44:08;;;;;;;6.67;4.60;;;6.70;40.10;;;;;;10385555;28;20710;-69
2020/12/04 23:49:11;;;;;;;5.60;4.77;;;6.70;40.10;;;;;;10383501;28;20222;-69
2020/12/04 23:54:15;;;;;;;5.10;4.60;;;6.60;40.00;;;;;;10380218;28;20244;-69
2020/12/04 23:59:17;;;;;;;5.97;4.90;;;6.60;40.00;;;;;;10380556;28;20238;-69
